createdAt,value
2022-11-19T00:01:16.806Z,22.13
2022-11-19T00:03:47.561Z,24.13
2022-11-19T00:06:19.342Z,17.35
2022-11-19T00:08:46.383Z,20.95
2022-11-19T00:11:41.566Z,25.08
2022-11-19T00:14:09.961Z,17.20
2022-11-19T00:16:36.801Z,19.45
2022-11-19T00:19:03.565Z,21.00
2022-11-19T00:21:30.174Z,24.73
2022-11-19T00:23:57.292Z,15.38
2022-11-19T00:26:24.336Z,25.02
2022-11-19T00:28:51.144Z,22.15
2022-11-19T00:31:18.495Z,20.88
2022-11-19T00:33:46.042Z,19.35
2022-11-19T00:36:14.970Z,19.77
2022-11-19T00:38:42.620Z,16.23
2022-11-19T00:41:09.923Z,18.48
2022-11-19T00:43:49.182Z,16.42
2022-11-19T00:46:24.882Z,17.17
2022-11-19T00:48:53.709Z,19.35
2022-11-19T00:51:22.174Z,15.43
2022-11-19T00:53:49.026Z,12.98
2022-11-19T00:56:17.719Z,17.80
2022-11-19T00:58:45.111Z,16.70
2022-11-19T01:01:12.827Z,13.60
2022-11-19T01:03:40.493Z,16.88
2022-11-19T01:06:08.503Z,18.67
2022-11-19T01:08:35.754Z,16.05
2022-11-19T01:11:26.886Z,12.13
2022-11-19T01:13:53.859Z,22.02
2022-11-19T01:16:27.119Z,16.33
2022-11-19T01:18:54.134Z,12.90
2022-11-19T01:21:22.903Z,16.50
2022-11-19T01:23:49.864Z,16.17
2022-11-19T01:26:17.421Z,14.95
2022-11-19T01:28:44.709Z,11.68
2022-11-19T01:31:16.631Z,14.43
2022-11-19T01:33:43.617Z,12.57
2022-11-19T01:36:13.147Z,13.05
2022-11-19T01:38:39.907Z,8.02
2022-11-19T01:41:07.345Z,12.85
2022-11-19T01:43:49.141Z,11.35
2022-11-19T01:46:18.593Z,12.35
2022-11-19T01:49:17.949Z,12.52
2022-11-19T01:51:51.539Z,9.88
2022-11-19T01:54:30.182Z,13.32
2022-11-19T01:57:00.419Z,10.15
2022-11-19T01:59:28.378Z,9.38
2022-11-19T02:01:55.039Z,12.93
2022-11-19T02:04:21.762Z,11.10
2022-11-19T02:06:48.605Z,10.73
2022-11-19T02:09:15.369Z,8.65
2022-11-19T02:12:13.356Z,10.35
2022-11-19T02:14:54.699Z,9.50
2022-11-19T02:17:26.740Z,9.60
2022-11-19T02:20:29.069Z,5.53
2022-11-19T02:22:55.643Z,10.48
2022-11-19T02:25:47.507Z,7.43
2022-11-19T02:28:22.662Z,14.60
2022-11-19T02:30:56.922Z,8.75
2022-11-19T02:33:28.040Z,10.45
2022-11-19T02:36:19.917Z,9.50
2022-11-19T02:38:56.805Z,6.45
2022-11-19T02:41:39.382Z,7.50
2022-11-19T02:44:39.969Z,11.30
2022-11-19T02:47:13.061Z,8.27
2022-11-19T02:49:46.575Z,6.85
2022-11-19T02:52:16.925Z,7.85
2022-11-19T02:54:43.883Z,9.45
2022-11-19T02:57:11.955Z,9.05
2022-11-19T03:00:00.192Z,7.20
2022-11-19T03:02:51.497Z,9.80
2022-11-19T03:05:22.758Z,9.00
2022-11-19T03:07:50.575Z,6.80
2022-11-19T03:10:19.302Z,8.45
2022-11-19T03:13:34.251Z,6.15
2022-11-19T03:16:21.120Z,7.07
2022-11-19T03:18:55.549Z,6.05
2022-11-19T03:21:33.683Z,7.38
2022-11-19T03:24:08.582Z,6.97
2022-11-19T03:26:39.004Z,6.13
2022-11-19T03:29:09.168Z,9.57
2022-11-19T03:31:36.748Z,8.70
2022-11-19T03:34:12.080Z,7.53
2022-11-19T03:39:11.052Z,6.70
2022-11-19T03:41:39.983Z,9.82
2022-11-19T03:44:34.531Z,8.23
2022-11-19T03:47:05.758Z,11.48
2022-11-19T03:49:35.877Z,8.55
2022-11-19T03:52:13.438Z,9.95
2022-11-19T03:54:40.943Z,8.77
2022-11-19T03:57:09.672Z,12.20
2022-11-19T03:59:36.456Z,9.57
2022-11-19T04:02:05.587Z,11.40
2022-11-19T04:04:38.334Z,8.18
2022-11-19T04:07:09.492Z,10.55
2022-11-19T04:09:36.656Z,11.02
2022-11-19T04:12:04.181Z,13.57
2022-11-19T04:14:31.014Z,11.85
2022-11-19T04:16:57.893Z,14.48
2022-11-19T04:19:25.033Z,14.63
2022-11-19T04:21:51.849Z,16.30
2022-11-19T04:24:18.487Z,13.13
2022-11-19T04:26:45.209Z,17.33
2022-11-19T04:29:12.226Z,12.27
2022-11-19T04:31:39.041Z,6.53
2022-11-19T04:34:05.772Z,9.18
2022-11-19T04:36:32.495Z,6.50
2022-11-19T04:38:59.277Z,9.57
2022-11-19T04:41:26.277Z,7.50
2022-11-19T04:43:52.931Z,6.32
2022-11-19T04:46:19.603Z,6.10
2022-11-19T04:48:46.295Z,6.82
2022-11-19T04:51:13.038Z,7.40
2022-11-19T04:53:39.629Z,9.18
2022-11-19T04:56:07.557Z,5.88
2022-11-19T04:58:34.757Z,5.18
2022-11-19T05:01:01.572Z,7.30
2022-11-19T05:03:28.288Z,6.60
2022-11-19T05:05:55.089Z,6.28
2022-11-19T05:08:22.522Z,4.40
2022-11-19T05:10:49.270Z,9.63
2022-11-19T05:13:15.864Z,9.20
2022-11-19T05:15:42.516Z,7.15
2022-11-19T05:18:09.130Z,8.02
2022-11-19T05:20:36.040Z,8.57
2022-11-19T05:23:02.948Z,6.68
2022-11-19T05:25:29.744Z,8.40
2022-11-19T05:27:56.449Z,7.35
2022-11-19T05:30:23.279Z,7.30
2022-11-19T05:32:49.983Z,7.30
2022-11-19T05:35:16.691Z,7.57
2022-11-19T05:37:43.288Z,8.73
2022-11-19T05:40:10.380Z,15.57
2022-11-19T05:42:37.130Z,6.10
2022-11-19T05:45:04.064Z,5.55
2022-11-19T05:47:30.737Z,7.65
2022-11-19T05:49:57.457Z,6.53
2022-11-19T05:52:24.180Z,7.88
2022-11-19T05:54:50.880Z,6.45
2022-11-19T05:57:17.773Z,7.88
2022-11-19T05:59:44.566Z,6.25
2022-11-19T06:02:11.464Z,4.03
2022-11-19T06:04:38.239Z,5.07
2022-11-19T06:07:04.991Z,5.90
2022-11-19T06:09:32.607Z,7.95
2022-11-19T06:11:59.255Z,6.28
2022-11-19T06:14:27.045Z,7.90
2022-11-19T06:16:56.224Z,6.10
2022-11-19T06:19:23.412Z,5.68
2022-11-19T06:21:50.705Z,7.38
2022-11-19T06:24:17.709Z,6.18
2022-11-19T06:26:44.583Z,6.43
2022-11-19T06:29:13.799Z,8.43
2022-11-19T06:31:40.538Z,8.05
2022-11-19T06:34:07.557Z,8.68
2022-11-19T06:36:39.072Z,5.88
2022-11-19T06:39:08.254Z,6.65
2022-11-19T06:41:34.916Z,7.40
2022-11-19T06:44:01.650Z,8.77
2022-11-19T06:46:28.323Z,8.55
2022-11-19T06:48:55.029Z,6.90
2022-11-19T06:51:21.859Z,5.63
2022-11-19T06:53:48.530Z,8.82
2022-11-19T06:56:15.179Z,5.68
2022-11-19T06:58:42.285Z,5.90
2022-11-19T07:01:09.060Z,6.55
2022-11-19T07:03:35.939Z,6.38
2022-11-19T07:06:04.236Z,6.68
2022-11-19T07:08:33.841Z,6.65
2022-11-19T07:11:01.219Z,6.05
2022-11-19T07:13:47.912Z,7.05
2022-11-19T07:16:14.770Z,8.60
2022-11-19T07:18:41.434Z,10.30
2022-11-19T07:21:08.142Z,6.38
2022-11-19T07:23:34.875Z,7.95
2022-11-19T07:26:02.197Z,6.88
2022-11-19T07:28:28.892Z,8.20
2022-11-19T07:30:56.128Z,6.95
2022-11-19T07:33:22.928Z,9.57
2022-11-19T07:35:49.605Z,8.55
2022-11-19T07:38:16.282Z,10.75
2022-11-19T07:40:43.034Z,8.93
2022-11-19T07:43:09.717Z,9.45
2022-11-19T07:45:37.993Z,9.95
2022-11-19T07:48:04.815Z,9.68
2022-11-19T07:50:31.607Z,7.45
2022-11-19T07:52:59.805Z,13.77
2022-11-19T07:55:26.382Z,11.30
2022-11-19T07:57:53.686Z,12.45
2022-11-19T08:00:20.638Z,9.27
2022-11-19T08:02:47.347Z,11.07
2022-11-19T08:05:14.082Z,9.55
2022-11-19T08:07:41.535Z,13.18
2022-11-19T08:10:09.797Z,14.38
2022-11-19T08:12:36.653Z,10.15
2022-11-19T08:15:03.876Z,10.35
2022-11-19T08:17:49.241Z,11.13
2022-11-19T08:20:17.490Z,15.48
2022-11-19T08:22:44.193Z,13.93
2022-11-19T08:25:11.058Z,14.68
2022-11-19T08:27:37.685Z,14.40
2022-11-19T08:30:04.723Z,16.48
2022-11-19T08:32:32.537Z,18.88
2022-11-19T08:34:59.262Z,19.80
2022-11-19T08:37:25.905Z,13.00
2022-11-19T08:39:52.538Z,13.65
2022-11-19T08:42:37.664Z,13.30
2022-11-19T08:45:04.799Z,14.35
2022-11-19T08:47:31.469Z,14.38
2022-11-19T08:49:58.167Z,16.70
2022-11-19T08:52:24.851Z,14.55
2022-11-19T08:54:52.132Z,15.77
2022-11-19T08:57:18.852Z,18.50
2022-11-19T08:59:45.878Z,16.80
2022-11-19T09:02:12.585Z,14.57
2022-11-19T09:04:39.246Z,17.45
2022-11-19T09:07:05.982Z,17.45
2022-11-19T09:09:32.957Z,18.58
2022-11-19T09:11:59.587Z,16.75
2022-11-19T09:14:26.408Z,14.45
2022-11-19T09:16:53.136Z,16.05
2022-11-19T09:19:20.110Z,15.70
2022-11-19T09:21:46.753Z,16.42
2022-11-19T09:24:13.424Z,14.23
2022-11-19T09:26:40.284Z,15.18
2022-11-19T09:29:06.932Z,16.13
2022-11-19T09:31:33.651Z,13.75
2022-11-19T09:34:00.498Z,15.93
2022-11-19T09:36:27.220Z,15.15
2022-11-19T09:38:57.955Z,13.27
2022-11-19T09:41:39.697Z,13.82
2022-11-19T09:44:40.174Z,13.55
2022-11-19T09:47:14.443Z,12.27
2022-11-19T09:49:41.072Z,18.02
2022-11-19T09:52:12.672Z,12.23
2022-11-19T13:31:00.564Z,14.32
2022-11-19T13:33:52.454Z,14.57
2022-11-19T13:36:25.740Z,16.38
2022-11-19T13:38:58.898Z,15.52
2022-11-19T13:41:35.367Z,16.75
2022-11-19T13:44:20.584Z,14.77
2022-11-19T13:46:57.719Z,11.52
2022-11-19T13:49:34.030Z,13.93
2022-11-19T13:52:15.482Z,14.23
2022-11-19T13:54:43.356Z,11.07
2022-11-19T13:57:26.444Z,12.18
2022-11-19T14:00:01.828Z,15.75
2022-11-19T14:05:23.259Z,11.48
2022-11-19T14:08:01.943Z,12.80
2022-11-19T14:10:33.753Z,10.98
2022-11-19T14:13:00.379Z,13.98
2022-11-19T14:15:58.813Z,12.40
2022-11-19T14:18:59.002Z,11.38
2022-11-19T14:21:43.987Z,21.83
2022-11-19T14:24:44.405Z,19.35
2022-11-19T14:27:23.997Z,14.90
2022-11-19T14:29:51.353Z,13.63
2022-11-19T14:32:18.846Z,18.58
2022-11-19T14:35:17.174Z,11.43
2022-11-19T14:37:48.402Z,15.90
2022-11-19T14:40:25.717Z,15.57
2022-11-19T14:43:20.300Z,12.02
2022-11-19T14:46:03.064Z,17.73
2022-11-19T14:48:35.130Z,18.77
2022-11-19T14:51:13.319Z,19.05
2022-11-19T14:53:52.370Z,12.27
2022-11-19T14:56:21.901Z,13.02
2022-11-19T14:59:03.555Z,15.15
2022-11-19T15:01:30.237Z,15.75
2022-11-19T15:04:03.050Z,16.88
2022-11-19T15:06:34.650Z,19.20
2022-11-19T15:09:02.254Z,15.00
2022-11-19T15:12:01.842Z,16.75
2022-11-19T15:14:28.535Z,18.23
2022-11-19T15:17:00.911Z,14.45
2022-11-19T15:19:30.610Z,17.33
2022-11-19T15:22:16.547Z,18.42
2022-11-19T15:25:03.691Z,16.05
2022-11-19T15:27:33.656Z,14.45
2022-11-19T15:30:16.749Z,17.05
2022-11-19T15:33:05.498Z,16.10
2022-11-19T15:36:23.687Z,19.13
2022-11-19T15:39:11.100Z,18.60
2022-11-19T15:41:42.987Z,24.08
2022-11-19T15:44:15.479Z,19.52
2022-11-19T15:46:48.909Z,19.10
2022-11-19T15:49:27.147Z,19.27
2022-11-19T15:52:13.037Z,24.45
2022-11-19T15:54:43.676Z,19.88
2022-11-19T15:57:25.588Z,22.88
2022-11-19T16:00:00.984Z,22.23
2022-11-19T16:02:36.862Z,20.52
2022-11-19T16:05:05.143Z,20.52
2022-11-19T16:07:32.446Z,21.30
2022-11-19T16:10:00.081Z,19.35
2022-11-19T16:12:46.414Z,24.77
2022-11-19T16:15:44.922Z,17.55
2022-11-19T16:18:17.097Z,17.45
2022-11-19T16:20:47.354Z,14.52
2022-11-19T16:23:19.599Z,22.20
2022-11-19T16:25:47.691Z,18.38
2022-11-19T16:28:19.919Z,20.58
2022-11-19T16:30:55.518Z,21.55
2022-11-19T16:35:53.189Z,22.70
2022-11-19T16:38:28.034Z,20.27
2022-11-19T16:41:14.420Z,19.45
2022-11-19T16:43:43.852Z,20.35
2022-11-19T16:46:13.570Z,16.20
2022-11-19T16:48:43.661Z,21.48
2022-11-19T16:52:07.921Z,18.17
2022-11-19T16:54:51.297Z,19.90
2022-11-19T16:57:21.966Z,16.35
2022-11-19T16:59:51.247Z,15.02
2022-11-19T17:02:20.285Z,20.75
2022-11-19T17:04:51.878Z,16.80
2022-11-19T17:07:24.428Z,21.00
2022-11-19T17:10:34.239Z,22.80
2022-11-19T17:13:04.405Z,15.40
2022-11-19T17:15:42.879Z,19.48
2022-11-19T17:18:17.008Z,18.48
2022-11-19T17:20:43.660Z,17.98
2022-11-19T17:23:13.999Z,22.33
2022-11-19T17:26:01.143Z,14.35
2022-11-19T17:28:35.302Z,21.65
2022-11-19T17:31:15.124Z,24.77
2022-11-19T17:33:58.840Z,20.60
2022-11-19T17:36:28.379Z,17.75
2022-11-19T17:38:55.097Z,23.02
2022-11-19T17:41:42.836Z,19.27
2022-11-19T17:44:31.788Z,20.45
2022-11-19T17:46:59.371Z,12.38
2022-11-19T17:49:26.245Z,20.77
2022-11-19T17:51:53.203Z,18.48
2022-11-19T17:54:20.294Z,15.75
2022-11-19T17:56:47.428Z,12.93
2022-11-19T17:59:14.217Z,21.38
2022-11-19T18:01:44.720Z,22.35
2022-11-19T18:04:12.807Z,19.33
2022-11-19T18:06:39.986Z,20.50
2022-11-19T18:09:07.096Z,16.17
2022-11-19T18:11:34.659Z,19.17
2022-11-19T18:14:02.452Z,11.85
2022-11-19T18:16:35.455Z,24.50
2022-11-19T18:19:02.293Z,21.75
2022-11-19T18:21:29.088Z,13.77
2022-11-19T18:23:55.780Z,23.70
2022-11-19T18:26:23.180Z,19.80
2022-11-19T18:28:50.308Z,15.63
2022-11-19T18:31:22.831Z,22.13
2022-11-19T18:33:50.511Z,20.52
2022-11-19T18:36:17.210Z,24.40
2022-11-19T18:38:44.852Z,27.92
2022-11-19T18:41:13.029Z,29.80
2022-11-19T18:43:58.294Z,28.60
2022-11-19T18:46:25.247Z,23.70
2022-11-19T18:48:53.686Z,33.72
2022-11-19T18:51:21.022Z,24.17
2022-11-19T18:53:48.198Z,24.75
2022-11-19T18:56:15.932Z,28.00
2022-11-19T18:58:42.966Z,23.15
2022-11-19T19:01:09.790Z,28.98
2022-11-19T19:03:36.490Z,19.20
2022-11-19T19:06:04.419Z,22.50
2022-11-19T19:08:32.028Z,23.20
2022-11-19T19:11:17.702Z,22.58
2022-11-19T19:13:45.526Z,24.17
2022-11-19T19:16:13.081Z,24.05
2022-11-19T19:18:39.943Z,15.30
2022-11-19T19:21:18.152Z,17.80
2022-11-19T19:23:44.979Z,23.15
2022-11-19T19:26:12.429Z,23.00
2022-11-19T19:28:39.336Z,21.52
2022-11-19T19:31:06.581Z,19.23
2022-11-19T19:33:33.315Z,22.42
2022-11-19T19:36:03.180Z,17.48
2022-11-19T19:38:29.944Z,21.27
2022-11-19T19:41:06.578Z,17.35
2022-11-19T19:43:33.675Z,18.83
2022-11-19T19:46:08.980Z,21.75
2022-11-19T19:51:03.754Z,16.08
2022-11-19T19:53:30.546Z,19.67
2022-11-19T19:56:09.474Z,17.20
2022-11-19T19:58:38.037Z,20.95
2022-11-19T20:01:16.829Z,16.67
2022-11-19T20:03:44.301Z,15.52
2022-11-19T20:06:12.995Z,20.08
2022-11-19T20:08:40.512Z,16.45
2022-11-19T20:11:09.659Z,16.90
2022-11-19T20:13:37.174Z,18.63
2022-11-19T20:16:06.227Z,19.27
2022-11-19T20:18:34.382Z,26.15
2022-11-19T20:21:01.452Z,25.83
2022-11-19T20:23:28.702Z,21.55
2022-11-19T20:26:14.036Z,21.50
2022-11-19T20:28:40.940Z,24.00
2022-11-19T20:31:12.169Z,23.23
2022-11-19T20:33:40.151Z,20.83
2022-11-19T20:36:08.052Z,20.30
2022-11-19T20:38:37.102Z,25.70
2022-11-19T20:41:06.559Z,23.17
2022-11-19T20:43:53.761Z,21.50
2022-11-19T20:46:21.841Z,19.13
2022-11-19T20:48:50.080Z,26.60
2022-11-19T20:51:20.029Z,20.20
2022-11-19T20:53:46.996Z,20.02
2022-11-19T20:56:14.679Z,16.58
2022-11-19T20:58:41.311Z,17.27
2022-11-19T21:01:11.759Z,23.92
2022-11-19T21:03:39.309Z,27.10
2022-11-19T21:06:07.589Z,24.17
2022-11-19T21:08:35.781Z,19.05
2022-11-19T21:11:09.175Z,21.25
2022-11-19T21:13:36.839Z,24.45
2022-11-19T21:16:18.045Z,19.58
2022-11-19T21:18:45.184Z,17.25
2022-11-19T21:21:13.421Z,15.80
2022-11-19T21:23:43.313Z,22.25
2022-11-19T21:26:16.915Z,20.98
2022-11-19T21:28:48.156Z,18.83
2022-11-19T21:31:16.944Z,13.18
2022-11-19T21:33:43.811Z,14.57
2022-11-19T21:36:10.706Z,17.55
2022-11-19T21:38:37.412Z,14.93
2022-11-19T21:41:04.480Z,14.38
2022-11-19T21:43:31.347Z,11.50
2022-11-19T21:45:58.074Z,14.32
2022-11-19T21:48:25.838Z,12.60
2022-11-19T21:50:52.910Z,18.55
2022-11-19T21:53:20.091Z,15.63
2022-11-19T21:55:47.265Z,12.20
2022-11-19T21:58:15.185Z,14.70
2022-11-19T22:00:42.773Z,12.75
2022-11-19T22:03:09.761Z,12.93
2022-11-19T22:05:36.535Z,15.45
2022-11-19T22:08:03.317Z,17.65
2022-11-19T22:10:29.957Z,18.88
2022-11-19T22:12:58.598Z,12.95
2022-11-19T22:15:26.264Z,14.60
2022-11-19T22:17:52.924Z,16.02
2022-11-19T22:20:19.682Z,16.42
2022-11-19T22:22:46.667Z,14.52
2022-11-19T22:25:14.060Z,16.75
2022-11-19T22:27:41.949Z,17.38
2022-11-19T22:30:10.334Z,14.88
2022-11-19T22:32:37.495Z,16.90
2022-11-19T22:35:05.200Z,16.88
2022-11-19T22:37:32.451Z,16.73
2022-11-19T22:39:59.363Z,18.63
2022-11-19T22:42:26.107Z,20.58
2022-11-19T22:44:52.959Z,19.75
2022-11-19T22:47:19.700Z,23.58
2022-11-19T22:49:46.554Z,19.65
2022-11-19T22:52:14.676Z,21.50
2022-11-19T22:54:42.071Z,16.92
2022-11-19T22:57:09.284Z,21.27
2022-11-19T22:59:36.028Z,17.48
2022-11-19T23:02:02.766Z,21.00
2022-11-19T23:04:29.527Z,20.17
2022-11-19T23:06:56.330Z,21.23
2022-11-19T23:09:23.593Z,21.30
2022-11-19T23:12:09.080Z,24.67
2022-11-19T23:14:35.727Z,40.13
2022-11-19T23:17:02.656Z,21.17
2022-11-19T23:19:29.488Z,23.25
2022-11-19T23:21:56.125Z,26.88
2022-11-19T23:24:23.042Z,29.13
2022-11-19T23:26:49.732Z,34.30
2022-11-19T23:29:16.583Z,36.40
2022-11-19T23:31:43.615Z,30.80
2022-11-19T23:34:10.508Z,36.13
2022-11-19T23:36:39.202Z,34.85
2022-11-19T23:39:08.294Z,32.35
2022-11-19T23:41:35.169Z,36.65
2022-11-19T23:44:02.287Z,33.55
2022-11-19T23:46:31.448Z,38.70
2022-11-19T23:48:59.261Z,30.23
2022-11-19T23:51:31.254Z,37.70
2022-11-19T23:53:58.520Z,37.55
2022-11-19T23:56:25.865Z,36.33
2022-11-19T23:58:53.267Z,38.03
